sensor_id;sensor_type;location;lat;lon;timestamp;P1;durP1;ratioP1;P2;durP2;ratioP2
64351;SDS011;50680;52.626;-8.668;2023-10-19T00:01:17;3.30;;;2.83;;
64351;SDS011;50680;52.626;-8.668;2023-10-19T00:03:45;2.80;;;2.60;;
64351;SDS011;50680;52.626;-8.668;2023-10-19T00:06:12;2.53;;;2.33;;
64351;SDS011;50680;52.626;-8.668;2023-10-19T00:08:38;2.97;;;2.70;;
64351;SDS011;50680;52.626;-8.668;2023-10-19T00:11:09;2.90;;;2.58;;
64351;SDS011;50680;52.626;-8.668;2023-10-19T00:13:37;2.88;;;2.67;;
64351;SDS011;50680;52.626;-8.668;2023-10-19T00:16:05;3.65;;;3.00;;
64351;SDS011;50680;52.626;-8.668;2023-10-19T00:18:39;5.13;;;2.80;;
64351;SDS011;50680;52.626;-8.668;2023-10-19T00:21:09;5.37;;;3.10;;
64351;SDS011;50680;52.626;-8.668;2023-10-19T00:23:56;2.33;;;2.22;;
64351;SDS011;50680;52.626;-8.668;2023-10-19T00:26:25;4.28;;;2.78;;
64351;SDS011;50680;52.626;-8.668;2023-10-19T00:28:53;3.35;;;3.05;;
64351;SDS011;50680;52.626;-8.668;2023-10-19T00:31:25;2.65;;;2.42;;
64351;SDS011;50680;52.626;-8.668;2023-10-19T00:34:00;3.38;;;2.70;;
64351;SDS011;50680;52.626;-8.668;2023-10-19T00:36:29;6.57;;;2.85;;
64351;SDS011;50680;52.626;-8.668;2023-10-19T00:38:58;6.00;;;2.60;;
64351;SDS011;50680;52.626;-8.668;2023-10-19T00:41:27;4.15;;;2.85;;
64351;SDS011;50680;52.626;-8.668;2023-10-19T00:43:57;4.50;;;2.67;;
64351;SDS011;50680;52.626;-8.668;2023-10-19T00:46:38;3.55;;;2.53;;
64351;SDS011;50680;52.626;-8.668;2023-10-19T00:49:08;5.10;;;3.30;;
64351;SDS011;50680;52.626;-8.668;2023-10-19T00:51:40;7.75;;;3.33;;
64351;SDS011;50680;52.626;-8.668;2023-10-19T00:54:28;3.40;;;2.80;;
64351;SDS011;50680;52.626;-8.668;2023-10-19T00:57:00;6.38;;;3.40;;
64351;SDS011;50680;52.626;-8.668;2023-10-19T00:59:38;7.35;;;3.80;;
64351;SDS011;50680;52.626;-8.668;2023-10-19T01:02:15;4.82;;;3.53;;
64351;SDS011;50680;52.626;-8.668;2023-10-19T01:04:44;5.13;;;3.03;;
64351;SDS011;50680;52.626;-8.668;2023-10-19T01:07:17;6.68;;;3.72;;
64351;SDS011;50680;52.626;-8.668;2023-10-19T01:09:55;4.50;;;3.30;;
64351;SDS011;50680;52.626;-8.668;2023-10-19T01:12:27;4.53;;;3.33;;
64351;SDS011;50680;52.626;-8.668;2023-10-19T01:17:35;9.00;;;5.32;;
64351;SDS011;50680;52.626;-8.668;2023-10-19T01:22:52;3.85;;;3.22;;
64351;SDS011;50680;52.626;-8.668;2023-10-19T01:28:31;4.85;;;3.00;;
64351;SDS011;50680;52.626;-8.668;2023-10-19T01:31:20;6.43;;;4.05;;
64351;SDS011;50680;52.626;-8.668;2023-10-19T01:33:57;9.52;;;3.67;;
64351;SDS011;50680;52.626;-8.668;2023-10-19T01:36:25;5.63;;;3.92;;
64351;SDS011;50680;52.626;-8.668;2023-10-19T01:38:53;8.48;;;4.30;;
64351;SDS011;50680;52.626;-8.668;2023-10-19T01:41:23;10.27;;;4.20;;
64351;SDS011;50680;52.626;-8.668;2023-10-19T01:43:53;8.48;;;3.08;;
64351;SDS011;50680;52.626;-8.668;2023-10-19T01:46:22;4.60;;;3.60;;
64351;SDS011;50680;52.626;-8.668;2023-10-19T01:48:52;5.78;;;3.55;;
64351;SDS011;50680;52.626;-8.668;2023-10-19T01:51:22;5.10;;;3.28;;
64351;SDS011;50680;52.626;-8.668;2023-10-19T01:53:51;7.20;;;3.55;;
64351;SDS011;50680;52.626;-8.668;2023-10-19T01:56:18;6.10;;;2.72;;
64351;SDS011;50680;52.626;-8.668;2023-10-19T01:58:48;4.07;;;2.70;;
64351;SDS011;50680;52.626;-8.668;2023-10-19T02:01:18;3.30;;;2.85;;
64351;SDS011;50680;52.626;-8.668;2023-10-19T02:03:56;6.25;;;3.00;;
64351;SDS011;50680;52.626;-8.668;2023-10-19T02:06:28;4.80;;;2.80;;
64351;SDS011;50680;52.626;-8.668;2023-10-19T02:09:11;5.00;;;2.83;;
64351;SDS011;50680;52.626;-8.668;2023-10-19T02:11:42;3.97;;;2.80;;
64351;SDS011;50680;52.626;-8.668;2023-10-19T02:14:09;5.85;;;3.00;;
64351;SDS011;50680;52.626;-8.668;2023-10-19T02:16:49;7.40;;;3.05;;
64351;SDS011;50680;52.626;-8.668;2023-10-19T02:19:18;6.28;;;2.95;;
64351;SDS011;50680;52.626;-8.668;2023-10-19T02:21:51;6.22;;;2.95;;
64351;SDS011;50680;52.626;-8.668;2023-10-19T02:24:25;2.90;;;2.67;;
64351;SDS011;50680;52.626;-8.668;2023-10-19T02:26:54;5.78;;;3.47;;
64351;SDS011;50680;52.626;-8.668;2023-10-19T02:29:23;4.70;;;3.05;;
64351;SDS011;50680;52.626;-8.668;2023-10-19T02:31:52;5.10;;;3.42;;
64351;SDS011;50680;52.626;-8.668;2023-10-19T02:34:21;6.45;;;3.22;;
64351;SDS011;50680;52.626;-8.668;2023-10-19T02:36:49;3.92;;;3.50;;
64351;SDS011;50680;52.626;-8.668;2023-10-19T02:39:16;4.88;;;4.07;;
64351;SDS011;50680;52.626;-8.668;2023-10-19T02:41:45;8.70;;;4.05;;
64351;SDS011;50680;52.626;-8.668;2023-10-19T02:44:15;9.57;;;5.20;;
64351;SDS011;50680;52.626;-8.668;2023-10-19T02:46:45;7.45;;;4.55;;
64351;SDS011;50680;52.626;-8.668;2023-10-19T02:49:14;6.03;;;3.83;;
64351;SDS011;50680;52.626;-8.668;2023-10-19T02:51:46;6.13;;;5.00;;
64351;SDS011;50680;52.626;-8.668;2023-10-19T02:54:14;7.03;;;4.60;;
64351;SDS011;50680;52.626;-8.668;2023-10-19T02:56:47;6.78;;;4.72;;
64351;SDS011;50680;52.626;-8.668;2023-10-19T02:59:16;5.57;;;4.45;;
64351;SDS011;50680;52.626;-8.668;2023-10-19T03:01:53;8.20;;;5.68;;
64351;SDS011;50680;52.626;-8.668;2023-10-19T03:04:39;8.05;;;5.70;;
64351;SDS011;50680;52.626;-8.668;2023-10-19T03:07:07;8.30;;;5.20;;
64351;SDS011;50680;52.626;-8.668;2023-10-19T03:09:34;4.90;;;4.30;;
64351;SDS011;50680;52.626;-8.668;2023-10-19T03:12:03;11.25;;;5.03;;
64351;SDS011;50680;52.626;-8.668;2023-10-19T03:14:31;9.52;;;5.05;;
64351;SDS011;50680;52.626;-8.668;2023-10-19T03:16:59;6.55;;;4.45;;
64351;SDS011;50680;52.626;-8.668;2023-10-19T03:19:27;7.85;;;3.78;;
64351;SDS011;50680;52.626;-8.668;2023-10-19T03:21:54;5.18;;;4.05;;
64351;SDS011;50680;52.626;-8.668;2023-10-19T03:24:22;5.38;;;4.28;;
64351;SDS011;50680;52.626;-8.668;2023-10-19T03:27:10;6.28;;;3.92;;
64351;SDS011;50680;52.626;-8.668;2023-10-19T03:29:51;4.30;;;3.90;;
64351;SDS011;50680;52.626;-8.668;2023-10-19T03:32:24;3.75;;;3.33;;
64351;SDS011;50680;52.626;-8.668;2023-10-19T03:35:02;5.05;;;4.00;;
64351;SDS011;50680;52.626;-8.668;2023-10-19T03:37:31;4.93;;;3.92;;
64351;SDS011;50680;52.626;-8.668;2023-10-19T03:39:58;8.48;;;3.95;;
64351;SDS011;50680;52.626;-8.668;2023-10-19T03:42:25;4.50;;;3.38;;
64351;SDS011;50680;52.626;-8.668;2023-10-19T03:44:53;5.75;;;4.30;;
64351;SDS011;50680;52.626;-8.668;2023-10-19T03:47:21;5.70;;;4.10;;
64351;SDS011;50680;52.626;-8.668;2023-10-19T03:49:53;6.25;;;3.72;;
64351;SDS011;50680;52.626;-8.668;2023-10-19T03:52:20;4.38;;;3.92;;
64351;SDS011;50680;52.626;-8.668;2023-10-19T03:54:48;3.30;;;3.10;;
64351;SDS011;50680;52.626;-8.668;2023-10-19T03:57:16;4.20;;;3.80;;
64351;SDS011;50680;52.626;-8.668;2023-10-19T03:59:51;4.25;;;3.25;;
64351;SDS011;50680;52.626;-8.668;2023-10-19T04:02:25;3.75;;;3.35;;
64351;SDS011;50680;52.626;-8.668;2023-10-19T04:04:55;5.30;;;3.20;;
64351;SDS011;50680;52.626;-8.668;2023-10-19T04:07:24;4.40;;;3.60;;
64351;SDS011;50680;52.626;-8.668;2023-10-19T04:09:58;4.53;;;3.15;;
64351;SDS011;50680;52.626;-8.668;2023-10-19T04:12:37;4.18;;;3.78;;
64351;SDS011;50680;52.626;-8.668;2023-10-19T04:15:09;3.45;;;3.15;;
64351;SDS011;50680;52.626;-8.668;2023-10-19T04:17:39;3.67;;;3.17;;
64351;SDS011;50680;52.626;-8.668;2023-10-19T04:20:09;5.85;;;3.30;;
64351;SDS011;50680;52.626;-8.668;2023-10-19T04:22:51;3.97;;;3.38;;
64351;SDS011;50680;52.626;-8.668;2023-10-19T04:25:20;3.20;;;2.95;;
64351;SDS011;50680;52.626;-8.668;2023-10-19T04:27:47;4.80;;;3.15;;
64351;SDS011;50680;52.626;-8.668;2023-10-19T04:30:15;3.58;;;2.92;;
64351;SDS011;50680;52.626;-8.668;2023-10-19T04:32:43;5.22;;;3.00;;
64351;SDS011;50680;52.626;-8.668;2023-10-19T04:35:11;4.05;;;2.53;;
64351;SDS011;50680;52.626;-8.668;2023-10-19T04:37:48;5.47;;;2.90;;
64351;SDS011;50680;52.626;-8.668;2023-10-19T04:40:17;3.85;;;3.17;;
64351;SDS011;50680;52.626;-8.668;2023-10-19T04:42:45;5.47;;;3.42;;
64351;SDS011;50680;52.626;-8.668;2023-10-19T04:45:13;4.40;;;3.10;;
64351;SDS011;50680;52.626;-8.668;2023-10-19T04:47:40;4.90;;;3.17;;
64351;SDS011;50680;52.626;-8.668;2023-10-19T04:50:07;3.17;;;2.92;;
64351;SDS011;50680;52.626;-8.668;2023-10-19T04:52:38;3.40;;;3.10;;
64351;SDS011;50680;52.626;-8.668;2023-10-19T04:55:05;4.15;;;3.33;;
64351;SDS011;50680;52.626;-8.668;2023-10-19T04:57:33;4.55;;;3.22;;
64351;SDS011;50680;52.626;-8.668;2023-10-19T05:00:00;3.28;;;2.97;;
64351;SDS011;50680;52.626;-8.668;2023-10-19T05:02:27;4.35;;;3.10;;
64351;SDS011;50680;52.626;-8.668;2023-10-19T05:04:54;3.85;;;3.47;;
64351;SDS011;50680;52.626;-8.668;2023-10-19T05:07:21;4.18;;;3.45;;
64351;SDS011;50680;52.626;-8.668;2023-10-19T05:09:48;3.30;;;3.03;;
64351;SDS011;50680;52.626;-8.668;2023-10-19T05:12:15;3.67;;;3.00;;
64351;SDS011;50680;52.626;-8.668;2023-10-19T05:14:42;7.50;;;3.58;;
64351;SDS011;50680;52.626;-8.668;2023-10-19T05:17:09;5.68;;;3.10;;
64351;SDS011;50680;52.626;-8.668;2023-10-19T05:19:37;3.42;;;3.13;;
64351;SDS011;50680;52.626;-8.668;2023-10-19T05:22:06;4.15;;;3.65;;
64351;SDS011;50680;52.626;-8.668;2023-10-19T05:24:35;4.65;;;3.42;;
64351;SDS011;50680;52.626;-8.668;2023-10-19T05:27:03;5.97;;;3.58;;
64351;SDS011;50680;52.626;-8.668;2023-10-19T05:29:31;3.90;;;3.55;;
64351;SDS011;50680;52.626;-8.668;2023-10-19T05:31:59;6.60;;;3.70;;
64351;SDS011;50680;52.626;-8.668;2023-10-19T05:34:27;4.15;;;3.58;;
64351;SDS011;50680;52.626;-8.668;2023-10-19T05:36:56;9.65;;;4.03;;
64351;SDS011;50680;52.626;-8.668;2023-10-19T05:39:25;4.97;;;3.40;;
64351;SDS011;50680;52.626;-8.668;2023-10-19T05:41:57;6.82;;;3.95;;
64351;SDS011;50680;52.626;-8.668;2023-10-19T05:44:31;5.18;;;4.18;;
64351;SDS011;50680;52.626;-8.668;2023-10-19T05:46:59;6.07;;;4.30;;
64351;SDS011;50680;52.626;-8.668;2023-10-19T05:49:26;7.35;;;4.43;;
64351;SDS011;50680;52.626;-8.668;2023-10-19T05:51:55;6.90;;;5.22;;
64351;SDS011;50680;52.626;-8.668;2023-10-19T05:54:23;8.75;;;5.30;;
64351;SDS011;50680;52.626;-8.668;2023-10-19T05:56:50;12.57;;;5.93;;
64351;SDS011;50680;52.626;-8.668;2023-10-19T05:59:19;12.63;;;6.18;;
64351;SDS011;50680;52.626;-8.668;2023-10-19T06:01:46;10.20;;;5.63;;
64351;SDS011;50680;52.626;-8.668;2023-10-19T06:04:15;7.45;;;5.50;;
64351;SDS011;50680;52.626;-8.668;2023-10-19T06:06:46;10.80;;;6.10;;
64351;SDS011;50680;52.626;-8.668;2023-10-19T06:09:15;12.25;;;7.68;;
64351;SDS011;50680;52.626;-8.668;2023-10-19T06:11:44;9.63;;;5.60;;
64351;SDS011;50680;52.626;-8.668;2023-10-19T06:14:12;15.25;;;6.32;;
64351;SDS011;50680;52.626;-8.668;2023-10-19T06:16:38;12.20;;;7.63;;
64351;SDS011;50680;52.626;-8.668;2023-10-19T06:19:07;14.85;;;6.43;;
64351;SDS011;50680;52.626;-8.668;2023-10-19T06:21:35;16.08;;;7.53;;
64351;SDS011;50680;52.626;-8.668;2023-10-19T06:24:06;10.87;;;7.23;;
64351;SDS011;50680;52.626;-8.668;2023-10-19T06:26:33;11.15;;;6.82;;
64351;SDS011;50680;52.626;-8.668;2023-10-19T06:29:00;10.68;;;6.15;;
64351;SDS011;50680;52.626;-8.668;2023-10-19T06:31:29;10.77;;;7.45;;
64351;SDS011;50680;52.626;-8.668;2023-10-19T06:33:56;9.40;;;6.45;;
64351;SDS011;50680;52.626;-8.668;2023-10-19T06:36:24;11.20;;;6.30;;
64351;SDS011;50680;52.626;-8.668;2023-10-19T06:38:52;10.85;;;6.57;;
64351;SDS011;50680;52.626;-8.668;2023-10-19T06:41:21;9.40;;;6.38;;
64351;SDS011;50680;52.626;-8.668;2023-10-19T06:43:49;14.50;;;6.93;;
64351;SDS011;50680;52.626;-8.668;2023-10-19T06:46:16;11.18;;;6.43;;
64351;SDS011;50680;52.626;-8.668;2023-10-19T06:48:44;11.80;;;6.32;;
64351;SDS011;50680;52.626;-8.668;2023-10-19T06:51:11;14.35;;;7.95;;
64351;SDS011;50680;52.626;-8.668;2023-10-19T06:53:38;13.75;;;7.30;;
64351;SDS011;50680;52.626;-8.668;2023-10-19T06:56:05;11.02;;;6.47;;
64351;SDS011;50680;52.626;-8.668;2023-10-19T06:58:33;10.88;;;6.85;;
64351;SDS011;50680;52.626;-8.668;2023-10-19T07:01:01;13.38;;;6.85;;
64351;SDS011;50680;52.626;-8.668;2023-10-19T07:05:59;11.98;;;7.20;;
64351;SDS011;50680;52.626;-8.668;2023-10-19T07:08:26;15.35;;;7.65;;
64351;SDS011;50680;52.626;-8.668;2023-10-19T07:10:53;12.75;;;7.18;;
64351;SDS011;50680;52.626;-8.668;2023-10-19T07:13:20;16.60;;;7.35;;
64351;SDS011;50680;52.626;-8.668;2023-10-19T07:15:48;11.02;;;6.72;;
64351;SDS011;50680;52.626;-8.668;2023-10-19T07:18:18;15.82;;;7.38;;
64351;SDS011;50680;52.626;-8.668;2023-10-19T07:20:45;8.80;;;5.97;;
64351;SDS011;50680;52.626;-8.668;2023-10-19T07:23:15;13.45;;;6.88;;
64351;SDS011;50680;52.626;-8.668;2023-10-19T07:25:45;13.23;;;7.15;;
64351;SDS011;50680;52.626;-8.668;2023-10-19T07:28:21;15.07;;;6.72;;
64351;SDS011;50680;52.626;-8.668;2023-10-19T07:30:49;14.35;;;7.05;;
64351;SDS011;50680;52.626;-8.668;2023-10-19T07:33:18;14.27;;;6.35;;
64351;SDS011;50680;52.626;-8.668;2023-10-19T07:35:47;11.93;;;6.80;;
64351;SDS011;50680;52.626;-8.668;2023-10-19T07:38:19;13.43;;;6.03;;
64351;SDS011;50680;52.626;-8.668;2023-10-19T07:40:49;13.98;;;6.55;;
64351;SDS011;50680;52.626;-8.668;2023-10-19T07:43:20;12.88;;;5.80;;
64351;SDS011;50680;52.626;-8.668;2023-10-19T07:45:48;9.35;;;4.80;;
64351;SDS011;50680;52.626;-8.668;2023-10-19T07:48:16;12.23;;;5.30;;
64351;SDS011;50680;52.626;-8.668;2023-10-19T07:50:43;7.25;;;4.80;;
64351;SDS011;50680;52.626;-8.668;2023-10-19T07:53:11;6.75;;;4.65;;
64351;SDS011;50680;52.626;-8.668;2023-10-19T07:55:38;6.07;;;4.10;;
64351;SDS011;50680;52.626;-8.668;2023-10-19T07:58:06;5.18;;;4.00;;
64351;SDS011;50680;52.626;-8.668;2023-10-19T08:00:33;7.22;;;3.97;;
64351;SDS011;50680;52.626;-8.668;2023-10-19T08:03:03;4.55;;;3.63;;
64351;SDS011;50680;52.626;-8.668;2023-10-19T08:08:00;4.55;;;3.88;;
64351;SDS011;50680;52.626;-8.668;2023-10-19T08:10:30;5.35;;;3.28;;
64351;SDS011;50680;52.626;-8.668;2023-10-19T08:12:58;5.60;;;3.63;;
64351;SDS011;50680;52.626;-8.668;2023-10-19T08:15:26;3.08;;;2.78;;
64351;SDS011;50680;52.626;-8.668;2023-10-19T08:17:55;3.60;;;3.30;;
64351;SDS011;50680;52.626;-8.668;2023-10-19T08:20:22;4.78;;;2.85;;
64351;SDS011;50680;52.626;-8.668;2023-10-19T08:22:53;4.13;;;3.13;;
64351;SDS011;50680;52.626;-8.668;2023-10-19T08:25:24;4.88;;;3.15;;
64351;SDS011;50680;52.626;-8.668;2023-10-19T08:28:09;5.05;;;2.67;;
64351;SDS011;50680;52.626;-8.668;2023-10-19T08:30:37;5.03;;;3.08;;
64351;SDS011;50680;52.626;-8.668;2023-10-19T08:33:04;8.32;;;3.78;;
64351;SDS011;50680;52.626;-8.668;2023-10-19T08:35:34;6.40;;;2.78;;
64351;SDS011;50680;52.626;-8.668;2023-10-19T08:38:02;5.10;;;3.33;;
64351;SDS011;50680;52.626;-8.668;2023-10-19T08:40:39;5.57;;;3.45;;
64351;SDS011;50680;52.626;-8.668;2023-10-19T08:43:06;5.95;;;3.90;;
64351;SDS011;50680;52.626;-8.668;2023-10-19T08:45:40;4.35;;;3.55;;
64351;SDS011;50680;52.626;-8.668;2023-10-19T08:48:08;4.07;;;2.90;;
64351;SDS011;50680;52.626;-8.668;2023-10-19T08:50:35;3.20;;;2.90;;
64351;SDS011;50680;52.626;-8.668;2023-10-19T08:53:04;5.93;;;3.35;;
64351;SDS011;50680;52.626;-8.668;2023-10-19T08:55:38;4.00;;;3.13;;
64351;SDS011;50680;52.626;-8.668;2023-10-19T08:58:08;4.68;;;3.33;;
64351;SDS011;50680;52.626;-8.668;2023-10-19T09:01:09;8.15;;;4.00;;
64351;SDS011;50680;52.626;-8.668;2023-10-19T09:03:36;4.47;;;3.75;;
64351;SDS011;50680;52.626;-8.668;2023-10-19T09:06:06;4.00;;;3.60;;
64351;SDS011;50680;52.626;-8.668;2023-10-19T09:08:33;2.75;;;2.55;;
64351;SDS011;50680;52.626;-8.668;2023-10-19T09:11:06;3.33;;;3.03;;
64351;SDS011;50680;52.626;-8.668;2023-10-19T09:13:47;5.00;;;2.97;;
64351;SDS011;50680;52.626;-8.668;2023-10-19T09:16:18;3.40;;;3.10;;
64351;SDS011;50680;52.626;-8.668;2023-10-19T09:18:47;2.78;;;2.58;;
64351;SDS011;50680;52.626;-8.668;2023-10-19T09:21:19;3.65;;;3.35;;
64351;SDS011;50680;52.626;-8.668;2023-10-19T09:23:55;10.73;;;3.83;;
64351;SDS011;50680;52.626;-8.668;2023-10-19T09:26:23;3.92;;;3.63;;
64351;SDS011;50680;52.626;-8.668;2023-10-19T09:28:52;4.18;;;3.30;;
64351;SDS011;50680;52.626;-8.668;2023-10-19T09:31:20;4.20;;;3.80;;
64351;SDS011;50680;52.626;-8.668;2023-10-19T09:33:51;6.00;;;3.63;;
64351;SDS011;50680;52.626;-8.668;2023-10-19T09:36:20;5.07;;;2.60;;
64351;SDS011;50680;52.626;-8.668;2023-10-19T09:38:52;5.25;;;2.65;;
64351;SDS011;50680;52.626;-8.668;2023-10-19T09:41:20;4.30;;;2.55;;
64351;SDS011;50680;52.626;-8.668;2023-10-19T09:43:57;4.38;;;2.20;;
64351;SDS011;50680;52.626;-8.668;2023-10-19T09:46:31;4.57;;;2.10;;
64351;SDS011;50680;52.626;-8.668;2023-10-19T09:49:02;3.67;;;1.83;;
64351;SDS011;50680;52.626;-8.668;2023-10-19T09:51:29;7.85;;;2.42;;
64351;SDS011;50680;52.626;-8.668;2023-10-19T09:54:20;4.22;;;1.80;;
64351;SDS011;50680;52.626;-8.668;2023-10-19T09:56:57;8.60;;;1.98;;
64351;SDS011;50680;52.626;-8.668;2023-10-19T09:59:31;2.70;;;2.10;;
64351;SDS011;50680;52.626;-8.668;2023-10-19T10:02:08;4.40;;;2.13;;
64351;SDS011;50680;52.626;-8.668;2023-10-19T10:04:42;7.43;;;2.05;;
64351;SDS011;50680;52.626;-8.668;2023-10-19T10:07:14;8.02;;;2.22;;
64351;SDS011;50680;52.626;-8.668;2023-10-19T10:09:57;9.57;;;2.42;;
64351;SDS011;50680;52.626;-8.668;2023-10-19T10:12:24;8.55;;;2.08;;
64351;SDS011;50680;52.626;-8.668;2023-10-19T10:17:25;9.80;;;2.15;;
64351;SDS011;50680;52.626;-8.668;2023-10-19T10:23:15;10.50;;;2.20;;
64351;SDS011;50680;52.626;-8.668;2023-10-19T10:25:45;6.90;;;1.88;;
64351;SDS011;50680;52.626;-8.668;2023-10-19T10:28:14;11.20;;;2.40;;
64351;SDS011;50680;52.626;-8.668;2023-10-19T10:33:41;10.30;;;2.40;;
64351;SDS011;50680;52.626;-8.668;2023-10-19T10:36:26;6.60;;;2.30;;
64351;SDS011;50680;52.626;-8.668;2023-10-19T10:38:53;10.57;;;2.60;;
64351;SDS011;50680;52.626;-8.668;2023-10-19T10:41:32;7.45;;;2.47;;
64351;SDS011;50680;52.626;-8.668;2023-10-19T10:43:59;14.07;;;3.08;;
64351;SDS011;50680;52.626;-8.668;2023-10-19T10:46:26;10.25;;;2.30;;
64351;SDS011;50680;52.626;-8.668;2023-10-19T10:48:55;10.02;;;2.38;;
64351;SDS011;50680;52.626;-8.668;2023-10-19T10:51:26;14.30;;;2.28;;
64351;SDS011;50680;52.626;-8.668;2023-10-19T10:53:57;8.38;;;1.98;;
64351;SDS011;50680;52.626;-8.668;2023-10-19T10:56:25;14.23;;;2.60;;
64351;SDS011;50680;52.626;-8.668;2023-10-19T10:58:52;8.50;;;2.20;;
64351;SDS011;50680;52.626;-8.668;2023-10-19T11:01:31;15.95;;;2.22;;
64351;SDS011;50680;52.626;-8.668;2023-10-19T11:04:08;12.63;;;2.40;;
64351;SDS011;50680;52.626;-8.668;2023-10-19T11:06:51;8.68;;;2.45;;
64351;SDS011;50680;52.626;-8.668;2023-10-19T11:09:22;15.23;;;2.83;;
64351;SDS011;50680;52.626;-8.668;2023-10-19T11:11:49;11.07;;;2.30;;
64351;SDS011;50680;52.626;-8.668;2023-10-19T11:14:16;11.88;;;2.15;;
64351;SDS011;50680;52.626;-8.668;2023-10-19T11:16:43;18.33;;;2.70;;
64351;SDS011;50680;52.626;-8.668;2023-10-19T11:19:10;14.18;;;2.20;;
64351;SDS011;50680;52.626;-8.668;2023-10-19T11:21:37;11.07;;;2.92;;
64351;SDS011;50680;52.626;-8.668;2023-10-19T11:24:04;10.07;;;2.33;;
64351;SDS011;50680;52.626;-8.668;2023-10-19T11:26:37;16.70;;;2.50;;
64351;SDS011;50680;52.626;-8.668;2023-10-19T11:29:07;11.70;;;2.08;;
64351;SDS011;50680;52.626;-8.668;2023-10-19T11:31:37;16.55;;;2.70;;
64351;SDS011;50680;52.626;-8.668;2023-10-19T11:34:05;10.63;;;2.20;;
64351;SDS011;50680;52.626;-8.668;2023-10-19T11:36:33;16.83;;;2.35;;
64351;SDS011;50680;52.626;-8.668;2023-10-19T11:39:00;16.15;;;2.38;;
64351;SDS011;50680;52.626;-8.668;2023-10-19T11:41:28;14.80;;;2.60;;
64351;SDS011;50680;52.626;-8.668;2023-10-19T11:43:56;9.05;;;2.78;;
64351;SDS011;50680;52.626;-8.668;2023-10-19T11:46:23;17.08;;;2.30;;
64351;SDS011;50680;52.626;-8.668;2023-10-19T11:48:52;13.25;;;2.88;;
64351;SDS011;50680;52.626;-8.668;2023-10-19T11:51:19;13.85;;;1.92;;
64351;SDS011;50680;52.626;-8.668;2023-10-19T11:53:46;11.07;;;2.00;;
64351;SDS011;50680;52.626;-8.668;2023-10-19T11:56:13;15.20;;;2.28;;
64351;SDS011;50680;52.626;-8.668;2023-10-19T11:58:42;13.27;;;2.47;;
64351;SDS011;50680;52.626;-8.668;2023-10-19T12:01:11;18.08;;;2.25;;
64351;SDS011;50680;52.626;-8.668;2023-10-19T12:03:44;12.07;;;3.50;;
64351;SDS011;50680;52.626;-8.668;2023-10-19T12:06:15;9.27;;;1.67;;
64351;SDS011;50680;52.626;-8.668;2023-10-19T12:08:46;11.70;;;2.22;;
64351;SDS011;50680;52.626;-8.668;2023-10-19T12:11:13;13.52;;;2.30;;
64351;SDS011;50680;52.626;-8.668;2023-10-19T12:13:45;7.53;;;1.90;;
64351;SDS011;50680;52.626;-8.668;2023-10-19T12:16:14;12.55;;;1.95;;
64351;SDS011;50680;52.626;-8.668;2023-10-19T12:18:46;9.52;;;1.80;;
64351;SDS011;50680;52.626;-8.668;2023-10-19T12:21:15;11.93;;;1.90;;
64351;SDS011;50680;52.626;-8.668;2023-10-19T12:23:44;9.88;;;1.55;;
64351;SDS011;50680;52.626;-8.668;2023-10-19T12:26:18;6.22;;;1.55;;
64351;SDS011;50680;52.626;-8.668;2023-10-19T12:28:46;11.50;;;1.60;;
64351;SDS011;50680;52.626;-8.668;2023-10-19T12:31:15;9.75;;;1.90;;
64351;SDS011;50680;52.626;-8.668;2023-10-19T12:33:46;19.02;;;2.10;;
64351;SDS011;50680;52.626;-8.668;2023-10-19T12:36:13;11.95;;;1.90;;
64351;SDS011;50680;52.626;-8.668;2023-10-19T12:38:49;13.00;;;2.03;;
64351;SDS011;50680;52.626;-8.668;2023-10-19T12:41:20;5.10;;;1.52;;
64351;SDS011;50680;52.626;-8.668;2023-10-19T12:43:48;15.57;;;2.17;;
64351;SDS011;50680;52.626;-8.668;2023-10-19T12:46:25;13.50;;;2.03;;
64351;SDS011;50680;52.626;-8.668;2023-10-19T12:48:54;16.42;;;2.08;;
64351;SDS011;50680;52.626;-8.668;2023-10-19T12:51:22;9.95;;;1.85;;
64351;SDS011;50680;52.626;-8.668;2023-10-19T12:53:52;13.27;;;2.35;;
64351;SDS011;50680;52.626;-8.668;2023-10-19T12:56:20;6.95;;;2.28;;
64351;SDS011;50680;52.626;-8.668;2023-10-19T12:58:47;7.28;;;1.75;;
64351;SDS011;50680;52.626;-8.668;2023-10-19T13:01:15;13.65;;;2.13;;
64351;SDS011;50680;52.626;-8.668;2023-10-19T13:03:47;13.27;;;2.00;;
64351;SDS011;50680;52.626;-8.668;2023-10-19T13:06:18;14.73;;;2.45;;
64351;SDS011;50680;52.626;-8.668;2023-10-19T13:08:46;14.32;;;2.20;;
64351;SDS011;50680;52.626;-8.668;2023-10-19T13:11:13;11.30;;;2.15;;
64351;SDS011;50680;52.626;-8.668;2023-10-19T13:13:44;13.68;;;2.40;;
64351;SDS011;50680;52.626;-8.668;2023-10-19T13:16:12;16.92;;;1.55;;
64351;SDS011;50680;52.626;-8.668;2023-10-19T13:18:40;11.63;;;1.80;;
64351;SDS011;50680;52.626;-8.668;2023-10-19T13:21:08;14.57;;;1.63;;
64351;SDS011;50680;52.626;-8.668;2023-10-19T13:23:43;11.77;;;1.85;;
64351;SDS011;50680;52.626;-8.668;2023-10-19T13:26:11;13.20;;;2.25;;
64351;SDS011;50680;52.626;-8.668;2023-10-19T13:28:41;9.40;;;1.63;;
64351;SDS011;50680;52.626;-8.668;2023-10-19T13:31:09;8.85;;;1.70;;
64351;SDS011;50680;52.626;-8.668;2023-10-19T13:33:36;9.32;;;2.25;;
64351;SDS011;50680;52.626;-8.668;2023-10-19T13:36:03;12.20;;;1.67;;
64351;SDS011;50680;52.626;-8.668;2023-10-19T13:38:32;9.15;;;1.80;;
64351;SDS011;50680;52.626;-8.668;2023-10-19T13:41:03;9.55;;;1.60;;
64351;SDS011;50680;52.626;-8.668;2023-10-19T13:43:43;11.05;;;1.85;;
64351;SDS011;50680;52.626;-8.668;2023-10-19T13:46:11;7.82;;;1.60;;
64351;SDS011;50680;52.626;-8.668;2023-10-19T13:48:38;9.90;;;1.83;;
64351;SDS011;50680;52.626;-8.668;2023-10-19T13:51:06;15.60;;;1.95;;
64351;SDS011;50680;52.626;-8.668;2023-10-19T13:53:40;13.18;;;1.80;;
64351;SDS011;50680;52.626;-8.668;2023-10-19T13:56:08;10.82;;;1.67;;
64351;SDS011;50680;52.626;-8.668;2023-10-19T13:58:36;9.35;;;1.67;;
64351;SDS011;50680;52.626;-8.668;2023-10-19T14:01:08;10.98;;;1.38;;
64351;SDS011;50680;52.626;-8.668;2023-10-19T14:03:37;9.57;;;1.55;;
64351;SDS011;50680;52.626;-8.668;2023-10-19T14:06:05;10.73;;;1.63;;
64351;SDS011;50680;52.626;-8.668;2023-10-19T14:08:32;14.00;;;1.90;;
64351;SDS011;50680;52.626;-8.668;2023-10-19T14:11:02;11.43;;;2.03;;
64351;SDS011;50680;52.626;-8.668;2023-10-19T14:13:30;11.35;;;2.80;;
64351;SDS011;50680;52.626;-8.668;2023-10-19T14:15:58;13.57;;;2.92;;
64351;SDS011;50680;52.626;-8.668;2023-10-19T14:18:25;10.70;;;2.88;;
64351;SDS011;50680;52.626;-8.668;2023-10-19T14:20:54;10.98;;;2.45;;
64351;SDS011;50680;52.626;-8.668;2023-10-19T14:23:21;17.30;;;2.10;;
64351;SDS011;50680;52.626;-8.668;2023-10-19T14:25:51;12.48;;;2.05;;
64351;SDS011;50680;52.626;-8.668;2023-10-19T14:28:18;11.00;;;2.03;;
64351;SDS011;50680;52.626;-8.668;2023-10-19T14:30:45;12.40;;;1.77;;
64351;SDS011;50680;52.626;-8.668;2023-10-19T14:33:12;13.23;;;2.03;;
64351;SDS011;50680;52.626;-8.668;2023-10-19T14:35:39;9.18;;;2.42;;
64351;SDS011;50680;52.626;-8.668;2023-10-19T14:38:09;10.95;;;3.55;;
64351;SDS011;50680;52.626;-8.668;2023-10-19T14:40:37;10.95;;;3.67;;
64351;SDS011;50680;52.626;-8.668;2023-10-19T14:43:07;9.98;;;3.75;;
64351;SDS011;50680;52.626;-8.668;2023-10-19T14:45:34;13.27;;;3.70;;
64351;SDS011;50680;52.626;-8.668;2023-10-19T14:48:03;11.57;;;3.05;;
64351;SDS011;50680;52.626;-8.668;2023-10-19T14:50:35;9.20;;;2.00;;
64351;SDS011;50680;52.626;-8.668;2023-10-19T14:53:02;7.20;;;1.73;;
64351;SDS011;50680;52.626;-8.668;2023-10-19T14:55:30;11.65;;;1.80;;
64351;SDS011;50680;52.626;-8.668;2023-10-19T14:57:58;12.70;;;2.38;;
64351;SDS011;50680;52.626;-8.668;2023-10-19T15:00:26;14.18;;;1.98;;
64351;SDS011;50680;52.626;-8.668;2023-10-19T15:03:23;10.73;;;1.85;;
64351;SDS011;50680;52.626;-8.668;2023-10-19T15:05:51;10.98;;;1.60;;
64351;SDS011;50680;52.626;-8.668;2023-10-19T15:08:19;8.68;;;1.70;;
64351;SDS011;50680;52.626;-8.668;2023-10-19T15:10:47;13.05;;;2.22;;